Time;durP1;ratioP1;P1;durP2;ratioP2;P2;SDS_P1;SDS_P2;PMS_P1;PMS_P2;Temp;Humidity;BMP_temperature;BMP_pressure;BME280_temperature;BME280_humidity;BME280_pressure;Samples;Min_cycle;Max_cycle;Signal;HPM_P1;HPM_P2
2023/10/15 00:00:15;;;;;;;1.42;1.13;;;8.90;58.40;;;;;;5013527;28;20337;-76
2023/10/15 00:02:43;;;;;;;2.65;0.90;;;8.90;58.50;;;;;;5008797;28;20393;-75
2023/10/15 00:05:23;;;;;;;2.15;0.90;;;8.80;58.30;;;;;;4992970;28;20683;-74
2023/10/15 00:07:50;;;;;;;1.52;0.90;;;8.80;58.40;;;;;;5016006;28;20413;-75
2023/10/15 00:10:22;;;;;;;1.48;1.13;;;8.80;58.40;;;;;;5006904;28;20029;-74
2023/10/15 00:12:50;;;;;;;1.65;0.90;;;8.80;58.40;;;;;;5017078;28;20037;-74
2023/10/15 00:15:23;;;;;;;2.75;1.35;;;8.70;58.20;;;;;;5002281;28;20026;-75
2023/10/15 00:17:54;;;;;;;1.30;0.85;;;8.70;58.30;;;;;;5016559;28;20037;-76
2023/10/15 00:20:23;;;;;;;0.80;0.80;;;8.70;58.30;;;;;;5017777;28;20036;-76
2023/10/15 00:22:51;;;;;;;2.58;0.95;;;8.70;58.40;;;;;;5021345;28;20039;-76
2023/10/15 00:25:19;;;;;;;1.50;1.13;;;8.70;58.40;;;;;;5017538;28;20045;-76
2023/10/15 00:27:57;;;;;;;1.50;0.98;;;8.70;58.40;;;;;;5018484;28;20021;-75
2023/10/15 00:30:31;;;;;;;2.85;1.17;;;8.60;58.30;;;;;;5014221;28;20033;-76
2023/10/15 00:32:58;;;;;;;2.15;1.08;;;8.60;58.30;;;;;;5006468;28;20339;-75
2023/10/15 00:35:25;;;;;;;2.92;1.05;;;8.60;58.30;;;;;;5011749;28;20030;-75
2023/10/15 00:37:57;;;;;;;1.60;1.15;;;8.60;58.40;;;;;;5018837;28;20103;-76
2023/10/15 00:40:27;;;;;;;2.53;1.23;;;8.50;58.30;;;;;;5024504;28;20044;-76
2023/10/15 00:42:54;;;;;;;1.27;1.00;;;8.50;58.40;;;;;;5020258;28;20599;-76
2023/10/15 00:45:21;;;;;;;1.42;1.20;;;8.40;58.20;;;;;;5027257;28;20124;-75
2023/10/15 00:48:03;;;;;;;1.73;1.00;;;8.40;58.30;;;;;;5022079;28;20029;-76
2023/10/15 00:50:31;;;;;;;2.33;0.93;;;8.40;58.40;;;;;;5018267;28;20039;-76
2023/10/15 00:53:05;;;;;;;2.65;1.08;;;8.40;58.40;;;;;;5023739;28;20127;-75
2023/10/15 00:55:35;;;;;;;2.47;1.15;;;8.40;58.40;;;;;;5017561;28;20040;-75
2023/10/15 00:58:08;;;;;;;1.45;1.00;;;8.30;58.30;;;;;;5022287;28;20038;-76
2023/10/15 01:00:52;;;;;;;2.85;1.05;;;8.30;58.40;;;;;;5014695;28;20025;-75
2023/10/15 01:03:30;;;;;;;1.35;1.00;;;8.30;58.40;;;;;;5016766;28;20076;-75
2023/10/15 01:06:05;;;;;;;1.55;1.20;;;8.30;58.40;;;;;;5013733;28;20797;-76
2023/10/15 01:08:37;;;;;;;2.38;1.10;;;8.20;58.20;;;;;;5021152;28;20034;-76
2023/10/15 01:11:27;;;;;;;1.88;0.82;;;8.20;58.20;;;;;;5005135;28;20121;-76
2023/10/15 01:13:56;;;;;;;1.88;0.85;;;8.20;58.20;;;;;;5018522;28;20112;-75
2023/10/15 01:16:22;;;;;;;1.75;0.90;;;8.20;58.30;;;;;;5003874;28;20172;-75
2023/10/15 01:19:06;;;;;;;1.20;0.80;;;8.20;58.30;;;;;;5020515;28;20085;-75
2023/10/15 01:21:49;;;;;;;2.65;0.80;;;8.20;58.40;;;;;;5019544;28;20385;-76
2023/10/15 01:24:19;;;;;;;3.37;0.97;;;8.10;58.20;;;;;;5018258;28;20053;-76
2023/10/15 01:27:08;;;;;;;2.50;0.95;;;8.10;58.20;;;;;;5020317;28;20273;-74
2023/10/15 01:29:35;;;;;;;2.35;1.10;;;8.10;58.20;;;;;;5017665;28;20033;-75
2023/10/15 01:32:03;;;;;;;1.42;0.80;;;8.00;58.10;;;;;;5019896;28;20649;-76
2023/10/15 01:34:37;;;;;;;4.28;1.65;;;8.00;58.10;;;;;;5018650;28;20037;-75
2023/10/15 01:37:13;;;;;;;2.45;1.00;;;8.00;58.20;;;;;;5017593;28;20099;-75
2023/10/15 01:39:40;;;;;;;1.60;1.05;;;8.00;58.20;;;;;;5019420;28;20050;-75
2023/10/15 01:42:06;;;;;;;2.05;1.15;;;8.00;58.20;;;;;;5019456;28;20511;-75
2023/10/15 01:44:47;;;;;;;2.10;0.93;;;7.90;58.10;;;;;;5019239;28;20465;-75
2023/10/15 01:47:13;;;;;;;2.47;0.93;;;7.90;58.10;;;;;;5019202;28;20145;-74
2023/10/15 01:49:40;;;;;;;2.22;1.25;;;7.90;58.10;;;;;;5020216;28;20331;-76
2023/10/15 01:52:09;;;;;;;2.95;0.90;;;7.90;58.10;;;;;;5018157;28;20029;-75
2023/10/15 01:54:45;;;;;;;1.80;1.10;;;7.90;58.20;;;;;;4985750;28;20036;-75
2023/10/15 01:57:15;;;;;;;3.10;1.27;;;7.90;58.20;;;;;;5017609;28;20026;-76
2023/10/15 01:59:47;;;;;;;3.13;1.10;;;7.80;58.00;;;;;;5018561;28;20106;-75
2023/10/15 02:02:23;;;;;;;2.50;0.80;;;7.80;58.10;;;;;;5014888;28;20056;-75
2023/10/15 02:04:50;;;;;;;2.40;1.10;;;7.80;58.10;;;;;;5015449;28;20064;-75
2023/10/15 02:07:19;;;;;;;2.30;1.10;;;7.80;58.10;;;;;;5014700;28;20052;-75
2023/10/15 02:09:46;;;;;;;2.22;1.15;;;7.80;58.20;;;;;;5023033;28;20036;-75
2023/10/15 02:12:13;;;;;;;2.25;1.10;;;7.70;58.10;;;;;;5016303;28;20389;-75
2023/10/15 02:14:44;;;;;;;2.15;0.90;;;7.70;58.10;;;;;;5020185;28;20025;-75
2023/10/15 02:17:14;;;;;;;2.67;1.02;;;7.70;58.10;;;;;;5018950;28;20065;-77
2023/10/15 02:19:40;;;;;;;1.90;1.13;;;7.70;58.10;;;;;;5015569;28;20418;-75
2023/10/15 02:22:12;;;;;;;2.30;1.17;;;7.60;58.00;;;;;;5022051;28;20140;-74
2023/10/15 02:24:39;;;;;;;2.05;0.90;;;7.70;58.20;;;;;;5020973;28;20038;-75
2023/10/15 02:27:09;;;;;;;0.70;0.70;;;7.60;58.00;;;;;;5004401;28;20066;-73
2023/10/15 02:29:35;;;;;;;1.08;0.90;;;7.60;58.10;;;;;;5018144;28;20034;-74
2023/10/15 02:32:12;;;;;;;2.08;1.00;;;7.50;57.90;;;;;;5020093;28;20412;-76
2023/10/15 02:34:40;;;;;;;3.22;1.10;;;7.50;58.00;;;;;;5022563;28;20559;-74
2023/10/15 02:37:10;;;;;;;1.33;0.82;;;7.50;58.00;;;;;;4999456;28;20562;-75
2023/10/15 02:39:43;;;;;;;1.95;1.02;;;7.40;57.80;;;;;;5022421;28;20420;-74
2023/10/15 02:42:10;;;;;;;2.50;1.10;;;7.40;57.90;;;;;;5020738;28;20554;-75
2023/10/15 02:44:38;;;;;;;2.45;0.95;;;7.40;57.90;;;;;;5013352;28;20042;-76
2023/10/15 02:47:10;;;;;;;2.47;0.88;;;7.40;57.90;;;;;;5017228;28;20063;-75
2023/10/15 02:52:35;;;;;;;3.35;0.80;;;7.40;58.00;;;;;;5002160;28;20401;-75
2023/10/15 02:55:10;;;;;;;2.63;1.00;;;7.30;57.80;;;;;;5002150;28;20044;-75
2023/10/15 02:57:40;;;;;;;2.53;1.10;;;7.30;57.80;;;;;;5015116;28;20103;-75
2023/10/15 03:02:57;;;;;;;1.35;0.80;;;7.30;57.80;;;;;;5012680;28;20432;-76
2023/10/15 03:05:30;;;;;;;1.30;0.82;;;7.30;57.80;;;;;;4997539;28;20041;-76
2023/10/15 03:07:57;;;;;;;;;;;7.20;57.70;;;;;;5017711;28;20477;-75
2023/10/15 03:10:23;;;;;;;2.00;1.35;;;7.30;57.90;;;;;;5015241;28;19909;-76
2023/10/15 03:12:49;;;;;;;1.15;0.90;;;7.20;57.70;;;;;;5017840;28;20472;-75
2023/10/15 03:15:20;;;;;;;2.38;0.85;;;7.20;57.70;;;;;;5009143;28;20091;-75
2023/10/15 03:17:46;;;;;;;1.23;0.80;;;7.20;57.80;;;;;;4998148;28;20048;-75
2023/10/15 03:22:46;;;;;;;3.60;0.90;;;7.20;57.80;;;;;;5013872;28;20463;-75
2023/10/15 03:25:13;;;;;;;1.10;0.85;;;7.10;57.60;;;;;;5000333;28;20060;-75
2023/10/15 03:27:40;;;;;;;1.67;0.95;;;7.10;57.60;;;;;;5021939;28;20025;-75
2023/10/15 03:30:09;;;;;;;2.42;0.88;;;7.10;57.70;;;;;;5017905;28;20512;-75
2023/10/15 03:32:44;;;;;;;1.42;0.63;;;7.10;57.70;;;;;;5016475;28;20198;-75
2023/10/15 03:35:17;;;;;;;2.58;1.20;;;7.10;57.60;;;;;;5017010;28;20461;-74
2023/10/15 03:37:47;;;;;;;2.67;0.80;;;7.00;57.50;;;;;;5015893;28;20045;-75
2023/10/15 03:40:38;;;;;;;1.17;0.80;;;7.00;57.50;;;;;;5018832;28;20124;-75
2023/10/15 03:43:06;;;;;;;1.90;0.75;;;7.00;57.50;;;;;;5015266;28;20128;-75
2023/10/15 03:45:33;;;;;;;0.70;0.70;;;7.00;57.60;;;;;;5019478;28;20239;-75
2023/10/15 03:48:09;;;;;;;0.85;0.60;;;6.90;57.40;;;;;;5014132;28;20064;-75
2023/10/15 03:50:37;;;;;;;1.90;0.80;;;6.90;57.40;;;;;;5017299;28;20033;-75
2023/10/15 03:53:08;;;;;;;1.52;0.70;;;6.90;57.50;;;;;;5017376;28;20038;-76
2023/10/15 03:55:34;;;;;;;1.52;0.82;;;6.90;57.50;;;;;;5013125;28;20045;-75
2023/10/15 03:58:01;;;;;;;1.45;0.98;;;6.80;57.30;;;;;;5019618;28;20036;-75
2023/10/15 04:00:35;;;;;;;1.65;0.80;;;6.80;57.30;;;;;;4998929;28;20367;-75
2023/10/15 04:03:18;;;;;;;3.80;1.00;;;6.80;57.40;;;;;;5016569;28;20040;-75
2023/10/15 04:05:52;;;;;;;1.67;0.85;;;6.80;57.40;;;;;;5014710;28;20033;-75
2023/10/15 04:08:19;;;;;;;3.92;1.15;;;6.80;57.40;;;;;;5013037;28;20033;-75
2023/10/15 04:10:55;;;;;;;2.33;0.77;;;6.70;57.20;;;;;;5013836;28;20033;-74
2023/10/15 04:13:21;;;;;;;2.22;0.70;;;6.70;57.30;;;;;;5018617;28;20049;-74
2023/10/15 04:15:50;;;;;;;1.10;0.73;;;6.70;57.30;;;;;;5018311;28;20029;-75
2023/10/15 04:18:17;;;;;;;0.88;0.77;;;6.70;57.30;;;;;;5020395;28;20124;-74
2023/10/15 04:20:42;;;;;;;1.10;0.70;;;6.70;57.40;;;;;;5018850;28;20029;-76
2023/10/15 04:23:13;;;;;;;1.35;0.60;;;6.70;57.30;;;;;;5020987;28;20037;-75
2023/10/15 04:25:40;;;;;;;1.58;1.00;;;6.60;57.10;;;;;;5018571;28;20033;-75
2023/10/15 04:28:13;;;;;;;1.42;0.70;;;6.60;57.20;;;;;;5015249;28;20037;-77
2023/10/15 04:30:42;;;;;;;1.83;0.77;;;6.60;57.20;;;;;;5010596;28;20083;-75
2023/10/15 04:33:13;;;;;;;1.48;0.82;;;6.60;57.20;;;;;;5016054;28;20021;-75
2023/10/15 04:35:43;;;;;;;1.52;0.70;;;6.60;57.20;;;;;;5022587;28;20029;-76
2023/10/15 04:38:21;;;;;;;1.00;0.55;;;6.50;57.00;;;;;;5024764;28;20075;-74
2023/10/15 04:43:25;;;;;;;1.15;0.68;;;6.50;57.10;;;;;;5018444;28;20234;-74
2023/10/15 04:45:56;;;;;;;0.82;0.60;;;6.50;57.10;;;;;;5022673;28;20040;-74
2023/10/15 04:48:32;;;;;;;3.00;1.00;;;6.50;57.10;;;;;;5020295;28;20037;-76
2023/10/15 04:51:02;;;;;;;0.85;0.70;;;6.40;57.00;;;;;;5019489;28;20556;-76
2023/10/15 04:53:30;;;;;;;1.60;0.60;;;6.40;57.00;;;;;;5016037;28;20516;-75
2023/10/15 04:55:57;;;;;;;1.35;0.80;;;6.40;57.00;;;;;;5016304;28;20038;-75
2023/10/15 04:58:27;;;;;;;1.40;0.80;;;6.40;57.10;;;;;;5020258;28;20037;-75
2023/10/15 05:00:57;;;;;;;1.95;0.80;;;6.40;57.10;;;;;;5010552;28;20494;-74
2023/10/15 05:03:23;;;;;;;2.58;1.00;;;6.40;57.10;;;;;;5014888;28;20098;-74
2023/10/15 05:05:49;;;;;;;4.32;0.90;;;6.40;57.10;;;;;;5016639;28;20037;-75
2023/10/15 05:08:17;;;;;;;1.25;0.90;;;6.30;57.00;;;;;;5015449;28;20034;-75
2023/10/15 05:10:50;;;;;;;1.27;0.85;;;6.30;57.00;;;;;;5015146;28;20028;-75
2023/10/15 05:13:16;;;;;;;;;;;6.30;57.00;;;;;;5017894;28;20087;-75
2023/10/15 05:15:46;;;;;;;2.72;1.08;;;6.30;57.00;;;;;;5016498;28;19913;-75
2023/10/15 05:18:13;;;;;;;1.60;0.70;;;6.30;57.00;;;;;;5018622;28;20041;-74
2023/10/15 05:20:39;;;;;;;1.42;0.50;;;6.30;57.00;;;;;;5014336;28;20025;-75
2023/10/15 05:23:05;;;;;;;0.98;0.77;;;6.20;56.90;;;;;;5013666;28;20037;-74
2023/10/15 05:25:32;;;;;;;3.75;0.80;;;6.20;56.90;;;;;;5012668;28;20037;-74
2023/10/15 05:27:59;;;;;;;1.15;0.63;;;6.20;56.90;;;;;;5014552;28;20340;-74
2023/10/15 05:30:26;;;;;;;2.25;0.80;;;6.20;57.00;;;;;;5012627;28;20033;-74
2023/10/15 05:32:52;;;;;;;1.23;0.60;;;6.20;57.00;;;;;;5017496;28;20044;-74
2023/10/15 05:35:18;;;;;;;1.67;0.80;;;6.20;57.00;;;;;;5019761;28;20091;-75
2023/10/15 05:37:45;;;;;;;1.20;0.93;;;6.10;56.80;;;;;;5021393;28;20033;-75
2023/10/15 05:40:12;;;;;;;0.82;0.60;;;6.10;56.80;;;;;;5016544;28;20042;-75
2023/10/15 05:42:38;;;;;;;1.67;0.80;;;6.10;56.90;;;;;;5019356;28;20041;-74
2023/10/15 05:45:06;;;;;;;1.38;0.77;;;6.10;56.90;;;;;;5018292;28;20052;-75
2023/10/15 05:47:34;;;;;;;0.70;0.70;;;6.10;56.90;;;;;;5019333;28;20138;-74
2023/10/15 05:50:01;;;;;;;1.38;0.80;;;6.10;56.90;;;;;;5020004;28;20052;-75
2023/10/15 05:52:27;;;;;;;2.53;0.80;;;6.00;56.70;;;;;;5020047;28;20033;-74
2023/10/15 05:54:55;;;;;;;2.45;0.88;;;6.00;56.80;;;;;;5023852;28;20052;-74
2023/10/15 05:57:21;;;;;;;0.93;0.70;;;6.00;56.90;;;;;;5019767;28;20038;-75
2023/10/15 05:59:48;;;;;;;1.83;0.63;;;6.00;56.90;;;;;;5017262;28;20593;-74
2023/10/15 06:02:15;;;;;;;1.52;0.85;;;6.00;56.90;;;;;;4999384;28;20045;-75
2023/10/15 06:04:46;;;;;;;1.08;0.70;;;6.00;56.90;;;;;;5004951;28;20076;-74
2023/10/15 06:07:13;;;;;;;1.77;1.00;;;6.00;57.00;;;;;;5019824;28;20133;-75
2023/10/15 06:09:39;;;;;;;1.00;0.60;;;6.00;56.90;;;;;;5016150;28;20029;-74
2023/10/15 06:12:05;;;;;;;2.08;0.70;;;6.00;57.00;;;;;;5017802;28;20043;-74
2023/10/15 06:14:32;;;;;;;0.88;0.75;;;5.90;56.70;;;;;;5047696;28;20038;-76
2023/10/15 06:16:59;;;;;;;2.47;0.73;;;5.90;56.70;;;;;;5002782;28;20033;-75
2023/10/15 06:19:25;;;;;;;2.47;1.02;;;5.90;56.70;;;;;;5019704;28;20395;-75
2023/10/15 06:21:52;;;;;;;1.65;0.80;;;5.90;56.80;;;;;;5019781;28;20080;-76
2023/10/15 06:24:18;;;;;;;2.03;0.98;;;5.90;56.80;;;;;;5019390;28;20045;-75
2023/10/15 06:26:44;;;;;;;0.70;0.50;;;5.90;56.80;;;;;;5018351;28;20044;-75
2023/10/15 06:29:10;;;;;;;1.30;0.98;;;5.90;56.80;;;;;;5018802;28;20030;-74
2023/10/15 06:31:37;;;;;;;4.38;1.75;;;5.80;56.60;;;;;;5017122;28;20141;-73
2023/10/15 06:34:03;;;;;;;2.50;1.10;;;5.90;56.90;;;;;;5019537;28;20119;-74
2023/10/15 06:36:29;;;;;;;1.10;0.77;;;5.80;56.60;;;;;;5015729;28;20033;-74
2023/10/15 06:39:00;;;;;;;1.35;0.93;;;5.80;56.60;;;;;;5020718;28;20504;-74
2023/10/15 06:41:27;;;;;;;3.33;0.90;;;5.80;56.70;;;;;;5003425;28;20034;-74
2023/10/15 06:43:53;;;;;;;2.80;0.90;;;5.80;56.70;;;;;;5007734;28;20083;-73
2023/10/15 06:46:21;;;;;;;1.98;0.75;;;5.80;56.70;;;;;;5017975;28;20030;-75
2023/10/15 06:48:48;;;;;;;2.88;1.13;;;5.80;56.90;;;;;;5021891;28;20130;-75
2023/10/15 06:51:17;;;;;;;3.05;1.20;;;5.80;57.10;;;;;;5018273;28;20029;-74
2023/10/15 06:53:43;;;;;;;1.30;1.10;;;5.90;57.30;;;;;;4996422;28;20056;-74
2023/10/15 06:56:09;;;;;;;2.05;1.10;;;5.80;57.10;;;;;;5017092;28;20064;-74
2023/10/15 06:58:35;;;;;;;3.42;1.95;;;5.80;57.10;;;;;;5026150;28;20084;-75
2023/10/15 07:01:02;;;;;;;3.13;1.20;;;5.80;57.10;;;;;;5015868;28;20146;-74
2023/10/15 07:03:28;;;;;;;1.90;1.40;;;5.80;57.20;;;;;;5014358;28;20435;-75
2023/10/15 07:05:54;;;;;;;1.75;1.25;;;5.80;57.20;;;;;;5016028;28;20037;-75
2023/10/15 07:08:20;;;;;;;2.97;1.20;;;5.80;57.30;;;;;;5021943;28;20504;-74
2023/10/15 07:10:46;;;;;;;2.20;1.15;;;5.70;57.20;;;;;;5015118;28;20061;-74
2023/10/15 07:13:12;;;;;;;2.58;1.20;;;5.70;57.20;;;;;;5012609;28;20113;-75
2023/10/15 07:15:38;;;;;;;5.45;1.35;;;5.70;57.20;;;;;;5012401;28;20373;-75
2023/10/15 07:18:05;;;;;;;2.03;1.40;;;5.70;57.30;;;;;;5005906;28;20295;-75
2023/10/15 07:20:31;;;;;;;3.75;1.20;;;5.70;57.30;;;;;;5014929;28;20042;-75
2023/10/15 07:23:00;;;;;;;4.65;1.70;;;5.70;57.30;;;;;;5019477;28;20033;-74
2023/10/15 07:25:29;;;;;;;8.90;2.20;;;5.70;58.10;;;;;;5017826;28;20034;-74
2023/10/15 07:27:56;;;;;;;6.68;1.65;;;5.80;58.40;;;;;;5017355;28;20614;-74
2023/10/15 07:30:23;;;;;;;4.97;1.58;;;6.10;59.00;;;;;;5009407;28;20119;-75
2023/10/15 07:32:53;;;;;;;5.32;1.75;;;6.20;58.80;;;;;;5017384;28;20030;-74
2023/10/15 07:35:21;;;;;;;3.50;1.67;;;6.30;58.90;;;;;;5011811;28;20048;-74
2023/10/15 07:37:51;;;;;;;4.65;2.90;;;6.40;59.00;;;;;;5013514;28;20499;-74
2023/10/15 07:40:22;;;;;;;1.85;1.55;;;6.40;59.00;;;;;;5014265;28;20064;-74
2023/10/15 07:42:51;;;;;;;2.38;1.52;;;6.30;58.90;;;;;;5014869;28;20400;-74
2023/10/15 07:45:18;;;;;;;3.65;1.80;;;6.30;58.90;;;;;;5017158;28;20041;-75
2023/10/15 07:47:46;;;;;;;1.67;1.30;;;6.30;59.00;;;;;;5018465;28;20091;-74
2023/10/15 07:50:18;;;;;;;2.50;1.70;;;6.30;59.10;;;;;;5016716;28;20140;-75
2023/10/15 07:52:47;;;;;;;2.58;1.65;;;6.30;59.20;;;;;;5015635;28;20200;-75
2023/10/15 07:55:13;;;;;;;2.75;1.52;;;6.30;59.20;;;;;;5015433;28;20033;-75
2023/10/15 07:57:39;;;;;;;2.28;1.77;;;6.30;59.30;;;;;;5017382;28;20564;-75
2023/10/15 08:00:22;;;;;;;2.22;0.95;;;6.30;59.40;;;;;;5018173;28;20103;-75
2023/10/15 08:02:52;;;;;;;;;;;6.30;59.50;;;;;;5003392;28;20053;-74
2023/10/15 08:05:20;;;;;;;1.95;1.10;;;6.40;59.60;;;;;;5016480;28;20038;-75
2023/10/15 08:07:50;;;;;;;2.95;0.90;;;6.40;59.50;;;;;;5008459;28;20441;-73
2023/10/15 08:10:17;;;;;;;1.95;1.20;;;6.40;59.60;;;;;;4999845;28;20032;-74
2023/10/15 08:12:44;;;;;;;2.17;1.27;;;6.40;59.60;;;;;;5011999;28;20443;-73
2023/10/15 08:15:11;;;;;;;3.72;1.20;;;6.40;59.70;;;;;;5014877;28;20037;-73
2023/10/15 08:17:37;;;;;;;2.10;1.00;;;6.40;59.80;;;;;;5039690;28;20029;-74
2023/10/15 08:20:04;;;;;;;4.75;1.20;;;6.50;60.10;;;;;;5047318;28;20116;-74
2023/10/15 08:22:30;;;;;;;2.30;1.02;;;6.40;60.00;;;;;;5012918;28;20041;-75
2023/10/15 08:24:56;;;;;;;2.35;1.00;;;6.50;60.20;;;;;;5021696;28;20037;-76
2023/10/15 08:27:23;;;;;;;2.40;1.00;;;6.50;60.20;;;;;;5014450;28;20438;-75
2023/10/15 08:29:49;;;;;;;1.52;0.93;;;6.60;60.50;;;;;;5015131;28;20116;-75
2023/10/15 08:32:20;;;;;;;1.30;1.10;;;6.70;61.00;;;;;;5009018;28;20037;-80
2023/10/15 08:34:47;;;;;;;2.55;2.15;;;6.80;61.30;;;;;;5015179;28;20037;-75
2023/10/15 08:37:13;;;;;;;2.35;1.70;;;7.00;61.70;;;;;;4991170;28;20026;-75
2023/10/15 08:39:40;;;;;;;4.72;1.77;;;7.10;61.90;;;;;;5012319;28;20062;-76
2023/10/15 08:42:25;;;;;;;3.80;1.80;;;7.20;62.10;;;;;;5006798;28;20033;-76
2023/10/15 08:44:57;;;;;;;2.40;1.42;;;7.20;62.30;;;;;;5015383;28;20038;-75
2023/10/15 08:47:25;;;;;;;2.83;1.80;;;7.30;62.40;;;;;;5011174;28;20047;-75
2023/10/15 08:49:53;;;;;;;2.78;1.17;;;7.30;62.30;;;;;;4999935;28;20069;-75
2023/10/15 08:52:21;;;;;;;3.85;1.60;;;7.30;62.30;;;;;;5018136;28;20184;-75
2023/10/15 08:54:48;;;;;;;1.92;1.25;;;7.40;62.50;;;;;;5018695;28;20056;-74
2023/10/15 08:57:15;;;;;;;3.78;1.35;;;7.40;62.60;;;;;;5016635;28;20557;-74
2023/10/15 08:59:43;;;;;;;3.53;1.38;;;7.40;62.60;;;;;;4993159;28;20365;-76
2023/10/15 09:02:10;;;;;;;2.95;1.10;;;7.50;62.80;;;;;;5010510;28;20484;-75
2023/10/15 09:04:36;;;;;;;3.13;1.08;;;7.50;62.80;;;;;;5016907;28;20152;-74
2023/10/15 09:07:03;;;;;;;3.25;1.15;;;7.50;62.80;;;;;;5018561;28;20489;-75
2023/10/15 09:09:32;;;;;;;1.10;0.85;;;7.60;63.00;;;;;;5020677;28;20511;-75
2023/10/15 09:11:59;;;;;;;1.42;0.73;;;7.60;63.00;;;;;;5018782;28;20033;-74
2023/10/15 09:14:46;;;;;;;3.63;1.15;;;7.60;63.00;;;;;;5016530;28;20064;-75
2023/10/15 09:17:17;;;;;;;2.58;0.95;;;7.60;63.10;;;;;;5015220;28;20444;-75
2023/10/15 09:19:46;;;;;;;2.33;0.90;;;7.70;63.10;;;;;;5019303;28;20481;-75
2023/10/15 09:22:15;;;;;;;4.72;1.13;;;7.70;63.10;;;;;;5019116;28;20037;-75
2023/10/15 09:24:45;;;;;;;2.75;1.08;;;7.70;63.10;;;;;;5016021;28;20400;-76
2023/10/15 09:27:13;;;;;;;3.08;1.63;;;7.80;63.20;;;;;;5021822;28;20333;-75
2023/10/15 09:29:40;;;;;;;3.00;0.90;;;7.80;63.70;;;;;;5017245;28;20037;-73
2023/10/15 09:32:07;;;;;;;4.53;0.90;;;7.90;63.40;;;;;;5014361;28;20096;-75
2023/10/15 09:34:37;;;;;;;4.45;0.80;;;7.90;63.30;;;;;;5019117;28;20041;-75
2023/10/15 09:37:06;;;;;;;2.58;0.77;;;8.00;63.50;;;;;;5006830;28;20724;-75
2023/10/15 09:39:34;;;;;;;4.20;0.73;;;8.00;63.50;;;;;;5018830;28;20060;-75
2023/10/15 09:42:03;;;;;;;3.17;1.20;;;8.10;63.60;;;;;;5014644;28;20044;-76
2023/10/15 09:44:32;;;;;;;9.05;2.30;;;8.20;63.80;;;;;;5007456;28;20240;-76
2023/10/15 09:46:58;;;;;;;4.38;1.17;;;8.30;64.80;;;;;;5019945;28;20507;-76
2023/10/15 09:49:25;;;;;;;4.72;1.10;;;8.40;64.70;;;;;;5022002;28;20493;-76
2023/10/15 09:51:52;;;;;;;30.73;6.95;;;8.60;65.00;;;;;;5023384;28;20139;-75
2023/10/15 09:54:19;;;;;;;24.40;5.07;;;8.70;65.20;;;;;;5022693;28;20265;-75
2023/10/15 09:56:47;;;;;;;24.05;4.25;;;8.80;65.50;;;;;;5011369;28;20981;-76
2023/10/15 09:59:14;;;;;;;9.70;2.60;;;8.90;65.70;;;;;;5021831;28;20444;-76
2023/10/15 10:01:46;;;;;;;10.80;2.53;;;9.00;65.70;;;;;;5009507;28;20286;-76
2023/10/15 10:04:42;;;;;;;5.05;1.50;;;9.10;65.80;;;;;;5015776;28;20042;-75
2023/10/15 10:07:31;;;;;;;9.45;2.10;;;9.20;65.80;;;;;;5015207;28;20032;-76
2023/10/15 10:10:00;;;;;;;7.72;1.52;;;9.20;65.60;;;;;;5018965;28;20042;-77
2023/10/15 10:13:04;;;;;;;8.13;2.08;;;9.30;65.60;;;;;;5016822;28;20025;-78
2023/10/15 10:15:54;;;;;;;6.28;1.40;;;9.40;65.70;;;;;;5016166;28;20448;-77
2023/10/15 10:18:24;;;;;;;4.00;1.45;;;9.40;65.50;;;;;;5022516;28;20029;-77
2023/10/15 10:20:50;;;;;;;4.82;1.13;;;9.50;65.50;;;;;;5018125;28;20033;-77
2023/10/15 10:23:22;;;;;;;5.22;1.10;;;9.50;65.40;;;;;;5014334;28;20037;-76
2023/10/15 10:25:49;;;;;;;4.00;0.90;;;9.50;65.30;;;;;;5018488;28;20099;-78
2023/10/15 10:28:19;;;;;;;2.42;0.85;;;9.60;65.30;;;;;;5016429;28;20025;-76
2023/10/15 10:30:55;;;;;;;3.40;1.23;;;9.60;65.20;;;;;;5017861;28;20030;-76
2023/10/15 10:33:41;;;;;;;5.15;1.08;;;9.60;65.10;;;;;;5022032;28;20036;-77
2023/10/15 10:36:27;;;;;;;1.73;0.80;;;9.70;65.10;;;;;;5021874;28;20038;-76
2023/10/15 10:39:10;;;;;;;4.30;1.38;;;9.70;64.90;;;;;;5019183;28;20056;-77
2023/10/15 10:41:38;;;;;;;4.38;1.02;;;9.70;64.70;;;;;;5020301;28;20040;-76
2023/10/15 10:44:10;;;;;;;3.65;1.13;;;9.80;64.70;;;;;;5005190;28;20134;-76
2023/10/15 10:46:43;;;;;;;3.30;1.02;;;9.80;64.60;;;;;;5040766;28;20044;-77
2023/10/15 10:49:16;;;;;;;6.30;1.30;;;9.80;64.40;;;;;;5001528;28;20743;-77
2023/10/15 10:52:17;;;;;;;4.75;1.30;;;9.90;64.50;;;;;;5017510;28;20033;-77
2023/10/15 10:54:45;;;;;;;6.90;1.27;;;9.90;64.50;;;;;;5011774;28;20569;-80
2023/10/15 10:57:12;;;;;;;6.25;1.40;;;10.00;64.60;;;;;;5020082;28;20080;-80
2023/10/15 10:59:41;;;;;;;7.95;1.13;;;10.10;64.70;;;;;;5019458;28;20025;-80
2023/10/15 11:02:13;;;;;;;3.80;0.98;;;10.10;64.60;;;;;;5000845;28;20051;-81
2023/10/15 11:04:43;;;;;;;3.83;1.02;;;10.20;64.70;;;;;;4996135;28;20033;-79
2023/10/15 11:07:11;;;;;;;4.13;0.90;;;10.20;64.50;;;;;;5016333;28;20032;-79
2023/10/15 11:09:37;;;;;;;2.75;1.00;;;10.30;64.50;;;;;;5023658;28;20029;-80
2023/10/15 11:12:09;;;;;;;2.50;1.00;;;10.20;64.20;;;;;;5026938;28;20388;-81
2023/10/15 11:14:36;;;;;;;5.13;1.27;;;10.30;64.20;;;;;;5016076;28;20052;-81
2023/10/15 11:17:05;;;;;;;1.17;0.85;;;10.30;64.00;;;;;;5023036;28;20037;-81
2023/10/15 11:19:34;;;;;;;4.82;0.95;;;10.40;63.90;;;;;;5021430;28;20037;-82
2023/10/15 11:22:03;;;;;;;4.75;1.33;;;10.40;63.70;;;;;;5013024;28;20113;-82
2023/10/15 11:24:33;;;;;;;2.45;1.02;;;10.40;63.50;;;;;;5017542;28;20044;-81
2023/10/15 11:27:00;;;;;;;5.03;0.95;;;10.50;64.00;;;;;;5005109;28;20063;-81
2023/10/15 11:29:28;;;;;;;2.03;0.60;;;10.50;63.30;;;;;;5022867;28;20033;-81
2023/10/15 11:31:57;;;;;;;2.80;2.00;;;10.60;63.20;;;;;;5019300;28;20475;-82
2023/10/15 11:34:28;;;;;;;6.45;1.15;;;10.60;62.90;;;;;;5020866;28;20540;-78
2023/10/15 11:36:58;;;;;;;5.80;1.90;;;10.70;62.90;;;;;;5018154;28;20040;-80
2023/10/15 11:39:37;;;;;;;3.92;1.80;;;10.70;62.70;;;;;;5024166;28;20079;-81
2023/10/15 11:42:06;;;;;;;5.72;1.45;;;10.70;62.80;;;;;;5013426;28;20051;-80
2023/10/15 11:44:37;;;;;;;5.07;2.38;;;10.80;62.90;;;;;;5010471;28;20132;-80
2023/10/15 11:47:24;;;;;;;9.00;4.78;;;10.90;62.90;;;;;;5015993;28;20186;-80
2023/10/15 11:49:50;;;;;;;8.93;4.25;;;11.00;62.90;;;;;;5017122;28;20124;-81
2023/10/15 11:52:22;;;;;;;5.68;2.70;;;11.20;63.10;;;;;;5010099;28;20033;-81
2023/10/15 11:54:51;;;;;;;4.10;2.30;;;11.30;63.00;;;;;;5021838;28;20104;-82
2023/10/15 11:57:22;;;;;;;7.72;2.30;;;11.40;62.80;;;;;;5003902;28;20046;-81
2023/10/15 11:59:48;;;;;;;5.07;2.13;;;11.50;62.60;;;;;;5017215;28;20029;-80
2023/10/15 12:02:14;;;;;;;4.45;2.38;;;11.60;62.50;;;;;;5016767;28;20506;-84
2023/10/15 12:04:40;;;;;;;3.90;1.85;;;11.70;62.40;;;;;;4990654;28;20037;-81
2023/10/15 12:07:15;;;;;;;4.70;1.58;;;11.80;62.30;;;;;;5005358;28;20473;-83
2023/10/15 12:09:47;;;;;;;5.57;1.80;;;11.90;62.30;;;;;;5015187;28;20042;-83
2023/10/15 12:12:14;;;;;;;4.25;1.60;;;12.00;62.20;;;;;;5024756;28;20068;-84
2023/10/15 12:14:40;;;;;;;4.13;1.40;;;12.10;62.30;;;;;;5011652;28;20033;-80
2023/10/15 12:17:07;;;;;;;4.50;1.92;;;12.10;62.10;;;;;;5012207;28;20356;-80
2023/10/15 12:19:32;;;;;;;3.20;1.15;;;12.20;62.00;;;;;;5017963;28;20474;-81
2023/10/15 12:21:59;;;;;;;2.92;1.70;;;12.30;61.90;;;;;;5024217;28;20037;-79
2023/10/15 12:24:25;;;;;;;4.22;1.23;;;12.40;61.80;;;;;;5012754;28;20428;-78
2023/10/15 12:26:52;;;;;;;2.95;1.73;;;12.50;61.60;;;;;;5011250;28;20528;-78
2023/10/15 12:29:28;;;;;;;2.60;1.33;;;12.60;61.40;;;;;;5012943;28;20038;-79
2023/10/15 12:31:57;;;;;;;4.22;1.65;;;12.60;61.00;;;;;;5017868;28;20116;-79
2023/10/15 12:34:24;;;;;;;4.47;1.83;;;12.70;60.70;;;;;;5020645;28;20037;-78
2023/10/15 12:36:50;;;;;;;3.33;1.25;;;12.80;60.60;;;;;;5010514;28;20371;-83
2023/10/15 12:39:16;;;;;;;2.10;0.90;;;12.80;60.20;;;;;;5021382;28;20132;-80
2023/10/15 12:41:42;;;;;;;4.75;1.13;;;12.90;60.00;;;;;;5018884;28;20153;-81
2023/10/15 12:44:10;;;;;;;3.05;1.10;;;13.00;60.10;;;;;;5012154;28;20555;-81
2023/10/15 12:46:37;;;;;;;2.63;0.85;;;13.20;60.10;;;;;;5019248;28;20030;-80
2023/10/15 12:49:07;;;;;;;3.75;0.90;;;13.40;60.00;;;;;;5019226;28;20033;-79
2023/10/15 12:51:34;;;;;;;2.78;0.80;;;13.60;59.70;;;;;;5015786;28;20433;-79
2023/10/15 12:54:01;;;;;;;2.13;0.88;;;13.80;59.50;;;;;;5022137;28;20116;-78
2023/10/15 12:56:30;;;;;;;2.58;0.85;;;14.00;59.40;;;;;;5022683;28;20042;-79
2023/10/15 12:58:58;;;;;;;5.90;1.00;;;14.20;59.20;;;;;;5023476;28;20124;-79
2023/10/15 13:01:24;;;;;;;1.70;0.77;;;14.30;58.90;;;;;;5003976;28;20049;-79
2023/10/15 13:03:51;;;;;;;4.80;0.90;;;14.50;58.70;;;;;;5021169;28;20047;-79
2023/10/15 13:06:17;;;;;;;5.00;1.00;;;14.60;58.40;;;;;;4999283;28;20037;-79
2023/10/15 13:08:43;;;;;;;2.92;0.80;;;14.70;58.10;;;;;;5027663;28;20044;-79
2023/10/15 13:11:12;;;;;;;2.50;1.00;;;14.90;58.00;;;;;;5022621;28;20037;-79
2023/10/15 13:13:39;;;;;;;1.33;0.70;;;15.00;57.90;;;;;;5027119;28;20041;-80
2023/10/15 13:16:08;;;;;;;3.08;0.75;;;15.10;57.70;;;;;;5021643;28;20033;-80
2023/10/15 13:18:38;;;;;;;3.38;0.90;;;15.20;57.40;;;;;;5009288;28;20410;-79